Time;durP1;ratioP1;P1;durP2;ratioP2;P2;SDS_P1;SDS_P2;PMS_P1;PMS_P2;Temp;Humidity;BMP_temperature;BMP_pressure;BME280_temperature;BME280_humidity;BME280_pressure;Samples;Min_cycle;Max_cycle;Signal;HPM_P1;HPM_P2
2021/08/02 00:00:21;;;;;;;5.73;4.37;;;16.60;99.90;;;;;;6127397;23;20395;-48
2021/08/02 00:02:56;;;;;;;4.70;4.17;;;16.60;99.90;;;;;;6127842;23;20406;-49
2021/08/02 00:05:24;;;;;;;7.93;3.77;;;16.60;99.90;;;;;;6127977;23;20391;-46
2021/08/02 00:07:58;;;;;;;4.10;3.60;;;16.60;99.90;;;;;;6127821;23;20429;-46
2021/08/02 00:10:34;;;;;;;6.03;4.00;;;16.60;99.90;;;;;;6127375;23;20474;-45
2021/08/02 00:13:04;;;;;;;6.97;3.63;;;16.60;99.90;;;;;;6127697;23;20391;-49
2021/08/02 00:15:31;;;;;;;3.63;3.20;;;16.60;99.90;;;;;;6127650;23;20399;-46
2021/08/02 00:17:58;;;;;;;5.37;4.13;;;16.50;99.90;;;;;;6127664;23;20755;-45
2021/08/02 00:20:29;;;;;;;4.67;3.90;;;16.60;99.90;;;;;;6127856;23;20413;-47
2021/08/02 00:22:58;;;;;;;5.00;4.17;;;16.50;99.90;;;;;;6127281;23;20395;-51
2021/08/02 00:25:26;;;;;;;6.00;4.60;;;16.50;99.90;;;;;;6127702;23;20714;-45
2021/08/02 00:27:54;;;;;;;5.40;4.47;;;16.40;99.90;;;;;;6127768;23;20411;-44
2021/08/02 00:30:24;;;;;;;6.10;4.03;;;16.50;99.90;;;;;;6127566;23;20676;-44
2021/08/02 00:32:50;;;;;;;5.30;3.40;;;16.40;99.90;;;;;;6127613;23;20442;-50
2021/08/02 00:35:17;;;;;;;5.47;4.27;;;16.50;99.90;;;;;;6127258;23;20470;-48
2021/08/02 00:37:51;;;;;;;5.17;4.10;;;16.50;99.90;;;;;;6127468;23;20415;-48
2021/08/02 00:41:06;;;;;;;5.20;4.70;;;16.50;99.90;;;;;;6127517;23;20394;-48
2021/08/02 00:44:13;;;;;;;6.27;4.00;;;16.50;99.90;;;;;;6123144;23;20419;-45
2021/08/02 00:46:45;;;;;;;5.20;3.87;;;16.50;99.90;;;;;;6101855;23;20489;-49
2021/08/02 00:49:16;;;;;;;5.97;4.43;;;16.50;99.90;;;;;;6127530;23;20403;-47
2021/08/02 00:51:50;;;;;;;3.70;3.27;;;16.50;99.90;;;;;;6127128;23;20426;-45
2021/08/02 00:54:19;;;;;;;4.97;4.10;;;16.60;99.90;;;;;;6127475;23;20391;-44
2021/08/02 00:56:48;;;;;;;5.07;4.37;;;16.50;99.90;;;;;;6127771;23;20734;-44
2021/08/02 00:59:15;;;;;;;4.97;3.50;;;16.40;99.90;;;;;;6128018;23;20892;-45
2021/08/02 01:01:45;;;;;;;6.07;4.43;;;16.40;99.90;;;;;;6127889;23;20417;-47
2021/08/02 01:04:13;;;;;;;4.60;3.90;;;16.40;99.90;;;;;;6127411;23;20407;-46
2021/08/02 01:06:41;;;;;;;8.43;3.70;;;16.40;99.90;;;;;;6126873;23;20453;-46
2021/08/02 01:09:08;;;;;;;4.60;3.50;;;16.40;99.90;;;;;;6126839;23;20924;-45
2021/08/02 01:11:35;;;;;;;4.63;4.13;;;16.50;99.90;;;;;;6127030;23;20514;-51
2021/08/02 01:14:07;;;;;;;5.13;4.63;;;16.40;99.90;;;;;;6127157;23;20440;-47
2021/08/02 01:16:36;;;;;;;5.60;4.20;;;16.50;99.90;;;;;;6127158;23;20721;-49
2021/08/02 01:19:08;;;;;;;4.70;4.20;;;16.40;99.90;;;;;;6127199;23;20411;-52
2021/08/02 01:21:39;;;;;;;5.03;4.30;;;16.40;99.90;;;;;;6127278;23;20390;-45
2021/08/02 01:24:08;;;;;;;5.40;4.30;;;16.50;99.90;;;;;;6127304;23;20804;-50
2021/08/02 01:27:08;;;;;;;4.67;3.90;;;16.60;99.90;;;;;;6126897;23;20414;-47
2021/08/02 01:30:11;;;;;;;5.10;4.10;;;16.50;99.90;;;;;;6091942;23;20414;-50
2021/08/02 01:32:38;;;;;;;7.90;4.00;;;16.60;99.90;;;;;;6126967;23;20513;-46
2021/08/02 01:35:05;;;;;;;5.07;3.97;;;16.60;99.90;;;;;;6127131;23;20486;-48
2021/08/02 01:37:35;;;;;;;5.17;4.77;;;16.70;99.90;;;;;;6126622;23;20407;-51
2021/08/02 01:40:05;;;;;;;4.47;3.90;;;16.60;99.90;;;;;;6127027;23;20407;-46
2021/08/02 01:42:31;;;;;;;4.30;3.90;;;16.60;99.90;;;;;;6126675;23;20481;-45
2021/08/02 01:44:58;;;;;;;4.00;3.60;;;16.60;99.90;;;;;;6127057;23;20418;-47
2021/08/02 01:47:34;;;;;;;5.37;4.83;;;16.60;99.90;;;;;;6126996;23;20411;-46
2021/08/02 01:50:08;;;;;;;4.40;3.57;;;16.60;99.90;;;;;;6126641;23;20410;-47
2021/08/02 01:52:42;;;;;;;4.23;3.20;;;16.70;99.90;;;;;;6126248;23;20457;-49
2021/08/02 01:55:16;;;;;;;7.00;4.47;;;16.70;99.90;;;;;;6126599;23;20749;-47
2021/08/02 01:57:49;;;;;;;5.70;4.07;;;16.70;99.90;;;;;;6126982;23;20417;-48
2021/08/02 02:00:17;;;;;;;4.43;4.00;;;16.70;99.90;;;;;;6127037;23;20455;-47
2021/08/02 02:02:50;;;;;;;5.40;3.73;;;16.60;99.90;;;;;;6126872;23;20431;-49
2021/08/02 02:05:19;;;;;;;7.50;3.17;;;16.50;99.90;;;;;;6126716;23;20402;-48
2021/08/02 02:07:50;;;;;;;5.03;4.27;;;16.60;99.90;;;;;;6127216;23;20473;-45
2021/08/02 02:10:23;;;;;;;6.40;4.30;;;16.50;99.90;;;;;;6127178;23;20402;-47
2021/08/02 02:12:51;;;;;;;6.03;4.67;;;16.50;99.90;;;;;;6126696;23;20426;-48
2021/08/02 02:15:18;;;;;;;4.23;3.80;;;16.60;99.90;;;;;;6127191;23;20402;-49
2021/08/02 02:17:46;;;;;;;3.97;3.57;;;16.60;99.90;;;;;;6127052;23;20476;-46
2021/08/02 02:20:14;;;;;;;4.40;3.63;;;16.40;99.90;;;;;;6126652;23;20481;-46
2021/08/02 02:22:42;;;;;;;4.43;3.63;;;16.40;99.90;;;;;;6126670;23;20410;-49
2021/08/02 02:25:11;;;;;;;3.70;3.17;;;16.30;99.90;;;;;;6127015;23;20414;-46
2021/08/02 02:27:39;;;;;;;3.90;3.30;;;16.50;99.90;;;;;;6127042;23;20423;-50
2021/08/02 02:30:08;;;;;;;4.33;3.30;;;16.50;99.90;;;;;;6126704;23;20407;-48
2021/08/02 02:32:37;;;;;;;6.30;4.07;;;16.40;99.90;;;;;;6126565;23;20438;-49
2021/08/02 02:35:08;;;;;;;3.63;3.30;;;16.40;99.90;;;;;;6126613;23;20501;-51
2021/08/02 02:37:36;;;;;;;6.33;3.10;;;16.40;99.90;;;;;;6126719;23;20740;-49
2021/08/02 02:40:04;;;;;;;3.37;3.10;;;16.50;99.90;;;;;;6126974;23;20757;-46
2021/08/02 02:42:33;;;;;;;4.17;3.30;;;16.50;99.90;;;;;;6126967;23;20745;-48
2021/08/02 02:45:01;;;;;;;4.17;3.87;;;16.50;99.90;;;;;;6126567;23;20429;-49
2021/08/02 02:47:30;;;;;;;3.87;3.57;;;16.40;99.90;;;;;;6126976;23;20738;-48
2021/08/02 02:49:59;;;;;;;3.93;3.27;;;16.40;99.90;;;;;;6126622;23;20861;-50
2021/08/02 02:52:27;;;;;;;3.33;3.03;;;16.40;99.90;;;;;;6126190;23;20446;-46
2021/08/02 02:54:55;;;;;;;3.23;2.93;;;16.40;99.90;;;;;;6126937;23;20414;-50
2021/08/02 02:57:22;;;;;;;4.17;2.90;;;16.40;99.90;;;;;;6126801;23;20414;-47
2021/08/02 02:59:48;;;;;;;5.40;3.90;;;16.50;99.90;;;;;;6126865;23;20410;-45
2021/08/02 03:02:18;;;;;;;4.47;3.80;;;16.50;99.90;;;;;;6127040;23;20434;-46
2021/08/02 03:04:48;;;;;;;3.97;3.37;;;16.50;99.90;;;;;;6126540;23;20434;-45
2021/08/02 03:07:16;;;;;;;3.77;3.20;;;16.50;99.90;;;;;;6126967;23;20403;-47
2021/08/02 03:09:47;;;;;;;7.03;4.10;;;16.60;99.90;;;;;;6128523;23;20423;-44
2021/08/02 03:12:13;;;;;;;5.43;2.93;;;16.60;99.90;;;;;;6129116;23;20449;-44
2021/08/02 03:14:41;;;;;;;4.77;3.67;;;16.50;99.90;;;;;;6129657;23;20410;-44
2021/08/02 03:17:08;;;;;;;6.20;4.07;;;16.50;99.90;;;;;;6129541;23;20406;-48
2021/08/02 03:19:38;;;;;;;4.10;3.70;;;16.40;99.90;;;;;;6129206;23;20490;-44
2021/08/02 03:22:16;;;;;;;6.00;3.90;;;16.40;99.90;;;;;;6128486;23;20465;-46
2021/08/02 03:24:46;;;;;;;5.10;3.63;;;16.40;99.90;;;;;;6128744;23;20535;-47
2021/08/02 03:27:21;;;;;;;5.90;3.90;;;16.40;99.90;;;;;;6128673;23;20391;-47
2021/08/02 03:29:52;;;;;;;6.00;3.50;;;16.50;99.90;;;;;;6128280;23;20465;-47
2021/08/02 03:32:24;;;;;;;4.63;3.70;;;16.50;99.90;;;;;;6128495;23;20427;-45
2021/08/02 03:34:56;;;;;;;3.83;3.47;;;16.50;99.90;;;;;;6128644;23;20407;-50
2021/08/02 03:37:24;;;;;;;6.43;4.60;;;16.40;99.90;;;;;;6128450;23;20720;-47
2021/08/02 03:39:53;;;;;;;5.47;4.03;;;16.50;99.90;;;;;;6128068;23;20490;-46
2021/08/02 03:42:20;;;;;;;6.37;4.03;;;16.50;99.90;;;;;;6128294;23;20498;-50
2021/08/02 03:44:48;;;;;;;6.90;4.50;;;16.50;99.90;;;;;;6128013;23;20417;-47
2021/08/02 03:47:15;;;;;;;3.50;3.20;;;16.50;99.90;;;;;;6127895;23;20893;-47
2021/08/02 03:49:42;;;;;;;4.53;3.53;;;16.50;99.90;;;;;;6128261;23;20410;-51
2021/08/02 03:52:10;;;;;;;4.20;3.30;;;16.50;99.90;;;;;;6127587;23;20458;-47
2021/08/02 03:54:37;;;;;;;8.30;3.93;;;16.60;99.90;;;;;;6127826;23;20442;-50
2021/08/02 03:57:05;;;;;;;3.73;3.43;;;16.60;99.90;;;;;;6127811;23;20407;-49
2021/08/02 03:59:31;;;;;;;5.27;2.73;;;16.60;99.90;;;;;;6128081;23;20430;-50
2021/08/02 04:01:58;;;;;;;3.20;2.60;;;16.70;99.90;;;;;;6127603;23;20914;-45
2021/08/02 04:04:25;;;;;;;2.80;2.50;;;16.60;99.90;;;;;;6127849;23;20921;-48
2021/08/02 04:06:51;;;;;;;3.80;3.07;;;16.60;99.90;;;;;;6128188;23;20414;-49
2021/08/02 04:09:20;;;;;;;6.07;3.10;;;16.60;99.90;;;;;;6128077;23;20418;-49
2021/08/02 04:11:46;;;;;;;3.00;2.57;;;16.50;99.90;;;;;;6128077;23;20437;-51
2021/08/02 04:14:13;;;;;;;3.17;2.60;;;16.40;99.90;;;;;;6127682;23;20417;-48
2021/08/02 04:16:40;;;;;;;3.33;3.03;;;16.40;99.90;;;;;;6127997;23;20410;-46
2021/08/02 04:19:07;;;;;;;4.77;3.83;;;16.40;99.90;;;;;;6127363;23;20415;-47
2021/08/02 04:21:34;;;;;;;3.73;2.83;;;16.40;99.90;;;;;;6127760;23;20485;-45
2021/08/02 04:24:01;;;;;;;3.63;3.27;;;16.40;99.90;;;;;;6128519;23;20437;-41
2021/08/02 04:26:29;;;;;;;4.37;2.80;;;16.40;99.90;;;;;;6127877;23;20415;-45
2021/08/02 04:28:56;;;;;;;2.83;2.63;;;16.50;99.90;;;;;;6128048;23;20402;-44
2021/08/02 04:31:23;;;;;;;3.37;2.80;;;16.40;99.90;;;;;;6127683;23;20708;-43
2021/08/02 04:33:50;;;;;;;4.27;2.70;;;16.40;99.90;;;;;;6127833;23;20501;-44
2021/08/02 04:36:20;;;;;;;2.10;1.90;;;16.50;99.90;;;;;;6127913;23;20407;-42
2021/08/02 04:38:46;;;;;;;4.17;2.90;;;16.60;99.90;;;;;;6127608;23;20414;-42
2021/08/02 04:41:13;;;;;;;3.00;2.70;;;16.60;99.90;;;;;;6127841;23;20470;-42
2021/08/02 04:43:43;;;;;;;3.07;2.77;;;16.60;99.90;;;;;;6127795;23;20446;-42
2021/08/02 04:46:10;;;;;;;3.20;2.60;;;16.70;99.90;;;;;;6127543;23;20414;-44
2021/08/02 04:48:39;;;;;;;4.93;2.63;;;16.80;99.90;;;;;;6127596;23;20889;-42
2021/08/02 04:51:09;;;;;;;2.80;2.50;;;16.70;99.90;;;;;;6127777;23;20418;-47
2021/08/02 04:53:36;;;;;;;3.73;2.70;;;16.60;99.90;;;;;;6127392;23;20478;-43
2021/08/02 04:56:03;;;;;;;9.93;3.13;;;16.60;99.90;;;;;;6127812;23;20481;-42
2021/08/02 04:58:30;;;;;;;8.20;5.00;;;16.50;99.90;;;;;;6127548;23;20423;-43
2021/08/02 05:00:58;;;;;;;3.90;3.00;;;16.50;99.90;;;;;;6127923;23;20425;-43
2021/08/02 05:03:24;;;;;;;3.47;3.10;;;16.50;99.90;;;;;;6127329;23;20466;-45
2021/08/02 05:05:53;;;;;;;4.37;3.00;;;16.50;99.90;;;;;;6127642;23;20415;-42
2021/08/02 05:08:20;;;;;;;5.03;3.03;;;16.50;99.90;;;;;;6127698;23;20411;-42
2021/08/02 05:10:47;;;;;;;4.20;2.70;;;16.40;99.90;;;;;;6127691;23;20469;-42
2021/08/02 05:13:14;;;;;;;4.30;3.70;;;16.50;99.90;;;;;;6126762;23;20497;-43
2021/08/02 05:15:41;;;;;;;4.20;3.20;;;16.40;99.90;;;;;;6127430;23;20419;-46
2021/08/02 05:18:10;;;;;;;3.33;3.03;;;16.40;99.90;;;;;;6127187;23;20444;-41
2021/08/02 05:20:37;;;;;;;5.70;3.13;;;16.40;99.90;;;;;;6127566;23;20425;-44
2021/08/02 05:23:04;;;;;;;5.10;3.80;;;16.40;99.90;;;;;;6127337;23;20399;-44
2021/08/02 05:25:30;;;;;;;5.10;3.07;;;16.40;99.90;;;;;;6127601;23;20407;-45
2021/08/02 05:27:57;;;;;;;4.93;4.13;;;16.40;99.90;;;;;;6127621;23;20406;-46
2021/08/02 05:30:24;;;;;;;3.97;3.13;;;16.50;99.90;;;;;;6127192;23;20402;-45
2021/08/02 05:32:50;;;;;;;4.43;3.40;;;16.50;99.90;;;;;;6126987;23;20450;-44
2021/08/02 05:35:19;;;;;;;3.30;3.00;;;16.50;99.90;;;;;;6127410;23;20410;-42
2021/08/02 05:37:45;;;;;;;4.93;3.20;;;16.40;99.90;;;;;;6127492;23;20407;-44
2021/08/02 05:40:13;;;;;;;2.97;2.47;;;16.50;99.90;;;;;;6127213;23;20414;-50
2021/08/02 05:42:40;;;;;;;3.83;2.30;;;16.60;99.90;;;;;;6129274;23;20406;-42
2021/08/02 05:45:09;;;;;;;3.07;2.20;;;16.80;99.90;;;;;;6128642;23;20403;-44
2021/08/02 05:47:36;;;;;;;5.70;2.60;;;16.80;99.90;;;;;;6129119;23;20402;-44
2021/08/02 05:50:03;;;;;;;3.60;2.97;;;16.90;99.90;;;;;;6129089;23;20496;-41
2021/08/02 05:52:32;;;;;;;3.10;2.33;;;17.00;99.90;;;;;;6128692;23;20466;-41
2021/08/02 05:54:58;;;;;;;4.90;2.87;;;17.10;99.90;;;;;;6132254;23;20407;-44
2021/08/02 05:57:28;;;;;;;6.53;3.40;;;17.20;99.90;;;;;;6130982;23;20455;-45
2021/08/02 05:59:54;;;;;;;5.30;3.00;;;17.20;99.90;;;;;;6130218;23;20469;-41
2021/08/02 06:02:21;;;;;;;3.10;2.63;;;17.30;99.90;;;;;;6131349;23;20458;-46
2021/08/02 06:04:48;;;;;;;3.43;3.00;;;17.30;99.90;;;;;;6130357;23;20611;-46
2021/08/02 06:07:15;;;;;;;6.60;3.43;;;17.40;99.90;;;;;;6128845;23;20411;-41
2021/08/02 06:09:43;;;;;;;6.93;2.60;;;17.30;99.90;;;;;;6128438;23;20406;-41
2021/08/02 06:12:10;;;;;;;11.03;2.87;;;17.60;99.90;;;;;;6128134;23;20720;-42
2021/08/02 06:14:37;;;;;;;4.93;2.87;;;17.70;99.90;;;;;;6128685;23;20406;-41
2021/08/02 06:17:04;;;;;;;5.60;2.50;;;17.80;99.90;;;;;;6128720;23;20437;-41
2021/08/02 06:19:31;;;;;;;4.90;2.97;;;18.00;99.90;;;;;;6128745;23;20406;-46
2021/08/02 06:21:57;;;;;;;5.13;3.07;;;18.00;99.90;;;;;;6129498;23;20908;-48
2021/08/02 06:24:24;;;;;;;4.70;2.33;;;17.90;99.90;;;;;;6130656;23;20414;-51
2021/08/02 06:26:52;;;;;;;6.63;3.47;;;17.80;99.90;;;;;;6129638;23;20861;-43
2021/08/02 06:29:19;;;;;;;4.10;3.07;;;17.90;99.90;;;;;;6130658;23;20698;-45
2021/08/02 06:31:46;;;;;;;5.77;3.00;;;17.80;99.90;;;;;;6130913;23;20430;-44
2021/08/02 06:34:12;;;;;;;6.03;3.53;;;17.80;99.90;;;;;;6131170;23;20512;-45
2021/08/02 06:36:39;;;;;;;3.17;2.57;;;17.90;99.90;;;;;;6131139;23;20398;-46
2021/08/02 06:39:06;;;;;;;12.00;3.07;;;17.80;99.90;;;;;;6130469;23;20752;-43
2021/08/02 06:41:32;;;;;;;7.63;3.30;;;17.80;99.90;;;;;;6130435;23;20719;-46
2021/08/02 06:44:00;;;;;;;4.50;2.50;;;18.00;99.90;;;;;;6131977;23;20436;-43
2021/08/02 06:46:27;;;;;;;3.40;2.87;;;18.10;99.90;;;;;;6132953;23;20402;-43
2021/08/02 06:48:54;;;;;;;4.63;2.20;;;18.20;99.90;;;;;;6131269;23;20453;-44
2021/08/02 06:51:22;;;;;;;3.57;2.60;;;18.40;99.90;;;;;;6130113;23;20410;-43
2021/08/02 06:53:49;;;;;;;4.20;2.30;;;18.40;99.90;;;;;;6130471;23;20446;-45
2021/08/02 06:56:16;;;;;;;5.57;2.50;;;18.30;99.90;;;;;;6130254;23;20418;-43
2021/08/02 06:58:43;;;;;;;5.83;2.27;;;18.20;99.90;;;;;;6130135;23;20422;-45
2021/08/02 07:01:13;;;;;;;3.97;2.00;;;18.00;99.90;;;;;;6130023;23;20410;-41
2021/08/02 07:03:40;;;;;;;2.33;1.97;;;17.90;99.90;;;;;;6131271;23;20393;-42
2021/08/02 07:06:07;;;;;;;2.30;2.03;;;17.90;99.90;;;;;;6131546;23;20721;-44
2021/08/02 07:08:36;;;;;;;5.30;1.90;;;18.00;99.90;;;;;;6131928;23;20742;-45
2021/08/02 07:11:09;;;;;;;3.03;2.10;;;18.00;99.90;;;;;;6132701;23;20394;-42
2021/08/02 07:13:36;;;;;;;5.63;2.00;;;18.00;99.90;;;;;;6131760;23;20441;-43
2021/08/02 07:16:02;;;;;;;2.83;1.60;;;18.00;99.90;;;;;;6130586;23;20426;-47
2021/08/02 07:18:32;;;;;;;3.10;1.43;;;17.90;99.90;;;;;;6131136;23;20417;-43
2021/08/02 07:20:59;;;;;;;3.93;1.27;;;18.00;99.90;;;;;;6129848;23;20433;-42
2021/08/02 07:23:25;;;;;;;3.00;1.23;;;18.00;99.90;;;;;;6131024;23;20437;-46
2021/08/02 07:25:54;;;;;;;2.40;1.20;;;18.00;99.90;;;;;;6132082;23;20407;-42
2021/08/02 07:28:21;;;;;;;5.83;1.60;;;18.20;99.90;;;;;;6132874;23;20395;-42
2021/08/02 07:30:48;;;;;;;3.80;1.70;;;19.00;99.90;;;;;;6132196;23;20402;-43
2021/08/02 07:33:14;;;;;;;2.60;1.77;;;19.50;99.90;;;;;;6132126;23;20435;-42
2021/08/02 07:35:42;;;;;;;3.73;1.50;;;19.70;99.90;;;;;;6131733;23;20762;-42
2021/08/02 07:38:09;;;;;;;3.20;2.00;;;19.80;99.90;;;;;;6131661;23;20415;-43
2021/08/02 07:40:36;;;;;;;4.00;2.77;;;19.50;99.90;;;;;;6131612;23;20454;-44
2021/08/02 07:43:03;;;;;;;3.10;1.83;;;19.30;99.90;;;;;;6133009;23;20830;-42
2021/08/02 07:45:30;;;;;;;4.47;2.30;;;19.20;99.90;;;;;;6131423;23;20874;-42
2021/08/02 07:47:56;;;;;;;2.00;1.57;;;19.30;99.90;;;;;;6131277;23;20407;-44
2021/08/02 07:50:23;;;;;;;2.60;1.20;;;19.60;99.90;;;;;;6129964;23;20894;-45
2021/08/02 07:52:51;;;;;;;3.10;1.40;;;20.70;99.90;;;;;;6130826;23;20903;-45
2021/08/02 07:55:18;;;;;;;2.70;2.00;;;21.40;99.90;;;;;;6130464;23;20450;-43
2021/08/02 07:57:44;;;;;;;4.20;1.83;;;21.50;99.90;;;;;;6131449;23;20407;-44
2021/08/02 08:00:16;;;;;;;1.70;1.60;;;21.30;99.90;;;;;;6130661;23;20410;-42
2021/08/02 08:02:42;;;;;;;2.80;2.20;;;21.30;99.90;;;;;;6130466;23;20410;-42
2021/08/02 08:05:11;;;;;;;3.40;2.33;;;21.00;99.90;;;;;;6130428;23;20411;-46
2021/08/02 08:07:45;;;;;;;7.13;1.83;;;21.30;99.90;;;;;;6131171;23;20391;-46
2021/08/02 08:10:15;;;;;;;3.60;1.97;;;22.40;99.90;;;;;;6130185;23;20410;-48
2021/08/02 08:12:41;;;;;;;2.03;1.50;;;22.80;99.90;;;;;;6129876;23;20410;-47
2021/08/02 08:15:09;;;;;;;2.23;1.73;;;22.40;99.90;;;;;;6130407;23;20406;-43
2021/08/02 08:17:36;;;;;;;2.80;1.77;;;21.50;99.90;;;;;;6130014;23;20407;-42
2021/08/02 08:20:03;;;;;;;2.43;1.60;;;20.80;99.90;;;;;;6130757;23;20403;-43
2021/08/02 08:22:30;;;;;;;2.23;1.83;;;20.30;99.90;;;;;;6130919;23;20395;-45
2021/08/02 08:24:56;;;;;;;3.77;2.00;;;19.80;99.90;;;;;;6130623;23;20417;-42
2021/08/02 08:27:25;;;;;;;5.53;1.87;;;20.20;99.90;;;;;;6131489;23;20417;-44
2021/08/02 08:29:52;;;;;;;2.70;1.87;;;21.70;99.90;;;;;;6129458;23;20943;-47
2021/08/02 08:32:18;;;;;;;2.23;1.80;;;23.50;99.90;;;;;;6129697;23;20407;-43
2021/08/02 08:34:45;;;;;;;3.13;1.83;;;24.80;99.90;;;;;;6129476;23;20509;-43
2021/08/02 08:37:12;;;;;;;3.67;1.70;;;25.80;99.90;;;;;;6129370;23;20462;-42
2021/08/02 08:39:38;;;;;;;1.80;1.20;;;26.90;92.00;;;;;;6129225;23;20485;-43
2021/08/02 08:42:07;;;;;;;9.50;1.40;;;27.60;82.10;;;;;;6128700;23;20510;-43
2021/08/02 08:44:35;;;;;;;4.53;1.57;;;27.80;78.90;;;;;;6128281;23;20415;-42
2021/08/02 08:47:02;;;;;;;2.53;1.30;;;28.30;76.10;;;;;;6128683;23;20420;-45
2021/08/02 08:49:29;;;;;;;2.60;1.13;;;29.00;73.20;;;;;;6128461;23;20406;-41
2021/08/02 08:51:57;;;;;;;3.90;1.20;;;29.00;67.10;;;;;;6127972;23;20423;-44
2021/08/02 08:54:23;;;;;;;2.43;2.23;;;28.80;64.80;;;;;;6128160;23;20900;-43
2021/08/02 08:56:52;;;;;;;3.27;1.50;;;28.60;63.30;;;;;;6128311;23;20438;-41
2021/08/02 08:59:19;;;;;;;2.47;1.70;;;28.30;63.30;;;;;;6128379;23;20442;-43
2021/08/02 09:01:47;;;;;;;2.57;1.57;;;28.20;62.80;;;;;;6128255;23;20423;-41
2021/08/02 09:04:14;;;;;;;1.50;1.30;;;28.10;63.40;;;;;;6128452;23;20473;-42
2021/08/02 09:06:47;;;;;;;3.27;2.00;;;28.10;63.90;;;;;;6128553;23;20413;-44
2021/08/02 09:09:24;;;;;;;1.90;1.40;;;28.50;62.70;;;;;;6128679;23;20419;-43
2021/08/02 09:12:06;;;;;;;2.30;1.67;;;29.10;62.70;;;;;;6128644;23;20410;-42
2021/08/02 09:14:33;;;;;;;1.70;1.30;;;29.10;60.30;;;;;;6127699;23;20431;-44
2021/08/02 09:17:01;;;;;;;2.13;1.93;;;28.10;62.50;;;;;;6128135;23;20410;-43
2021/08/02 09:19:39;;;;;;;3.57;1.90;;;26.80;66.10;;;;;;6128156;23;20410;-42
2021/08/02 09:22:06;;;;;;;4.53;2.30;;;25.00;71.50;;;;;;6129047;23;20394;-45
2021/08/02 09:24:34;;;;;;;1.57;1.30;;;24.10;75.70;;;;;;6129149;23;20457;-47
2021/08/02 09:27:01;;;;;;;3.10;1.93;;;24.30;79.30;;;;;;6129352;23;20423;-43
2021/08/02 09:29:28;;;;;;;2.00;1.70;;;25.40;76.30;;;;;;6128326;23;20438;-46
2021/08/02 09:31:55;;;;;;;3.30;1.60;;;26.10;72.40;;;;;;6128931;23;20486;-44
2021/08/02 09:34:24;;;;;;;3.10;1.70;;;25.90;70.10;;;;;;6127613;23;20732;-44
2021/08/02 09:36:55;;;;;;;3.20;1.33;;;25.50;71.90;;;;;;6127558;23;20413;-43
2021/08/02 09:39:22;;;;;;;2.00;1.70;;;24.90;72.90;;;;;;6127429;23;20391;-47
2021/08/02 09:41:49;;;;;;;2.50;1.63;;;24.60;76.00;;;;;;6127260;23;20908;-43
2021/08/02 09:44:21;;;;;;;2.80;1.20;;;25.20;73.70;;;;;;6127152;23;20940;-45
2021/08/02 09:46:59;;;;;;;1.80;1.40;;;25.40;73.10;;;;;;6127352;23;20719;-46
2021/08/02 09:49:27;;;;;;;2.70;1.87;;;25.20;71.80;;;;;;6127344;23;20406;-44
2021/08/02 09:51:56;;;;;;;2.90;1.60;;;24.30;73.20;;;;;;6127193;23;20551;-44
2021/08/02 09:54:27;;;;;;;2.00;1.80;;;23.90;76.30;;;;;;6127381;23;20697;-45
2021/08/02 09:56:54;;;;;;;1.57;1.23;;;23.60;77.70;;;;;;6127446;23;20402;-42
2021/08/02 09:59:22;;;;;;;2.90;1.40;;;23.20;79.40;;;;;;6127278;23;20430;-44
2021/08/02 10:01:49;;;;;;;1.50;1.30;;;22.90;80.50;;;;;;6126721;23;20889;-42
2021/08/02 10:04:16;;;;;;;4.23;1.67;;;22.50;81.90;;;;;;6127510;23;20563;-43
2021/08/02 10:06:44;;;;;;;1.60;1.40;;;22.30;83.80;;;;;;6127508;23;20410;-45
2021/08/02 10:09:12;;;;;;;2.77;1.63;;;22.20;84.60;;;;;;6127396;23;20454;-46
2021/08/02 10:11:39;;;;;;;3.90;2.10;;;21.90;85.10;;;;;;6127420;23;20414;-46
2021/08/02 10:14:06;;;;;;;3.13;1.37;;;21.50;86.80;;;;;;6127259;23;20446;-45
2021/08/02 10:16:35;;;;;;;2.20;1.60;;;21.40;87.40;;;;;;6127579;23;20414;-44
2021/08/02 10:19:04;;;;;;;5.27;2.00;;;21.10;89.20;;;;;;6128868;23;20425;-43
2021/08/02 10:21:41;;;;;;;2.03;1.70;;;20.90;90.90;;;;;;6129627;23;20698;-42
2021/08/02 10:24:11;;;;;;;4.50;1.87;;;20.80;91.30;;;;;;6130019;23;20386;-42
2021/08/02 10:26:39;;;;;;;1.87;1.27;;;20.70;92.70;;;;;;6130226;23;20403;-43
2021/08/02 10:29:08;;;;;;;6.50;1.70;;;20.70;93.30;;;;;;6131273;23;20442;-41
2021/08/02 10:31:46;;;;;;;2.33;1.43;;;21.10;93.60;;;;;;6131671;23;20406;-43
2021/08/02 10:34:17;;;;;;;1.93;1.57;;;22.30;92.20;;;;;;6131411;23;20446;-41
2021/08/02 10:36:55;;;;;;;5.93;1.50;;;22.60;90.70;;;;;;6132275;23;20744;-40
2021/08/02 10:39:25;;;;;;;1.93;1.30;;;22.40;90.70;;;;;;6132896;23;20423;-44
2021/08/02 10:41:52;;;;;;;3.80;1.50;;;22.10;90.50;;;;;;6131186;23;20458;-43
2021/08/02 10:44:20;;;;;;;2.90;1.77;;;21.80;91.80;;;;;;6131454;23;20403;-45
2021/08/02 10:46:47;;;;;;;2.03;1.60;;;22.00;91.80;;;;;;6131372;23;20406;-47
2021/08/02 10:49:16;;;;;;;4.70;1.93;;;22.20;91.20;;;;;;6131622;23;20450;-45
2021/08/02 10:51:48;;;;;;;2.13;1.43;;;22.30;91.00;;;;;;6132539;23;20466;-43
2021/08/02 10:54:14;;;;;;;2.03;1.83;;;22.40;91.10;;;;;;6131082;23;20915;-41
2021/08/02 10:56:48;;;;;;;5.93;1.90;;;22.30;89.60;;;;;;6132814;23;20485;-43
2021/08/02 10:59:15;;;;;;;7.17;2.73;;;22.60;91.20;;;;;;6131817;23;20485;-42
2021/08/02 11:01:46;;;;;;;1.53;1.43;;;23.10;89.10;;;;;;6132985;23;20465;-43
2021/08/02 11:04:14;;;;;;;1.90;1.40;;;23.20;89.50;;;;;;6131953;23;20455;-42
2021/08/02 11:06:41;;;;;;;2.60;2.17;;;23.20;88.70;;;;;;6130863;23;20586;-44
2021/08/02 11:09:08;;;;;;;2.43;1.77;;;23.00;88.40;;;;;;6131525;23;20477;-44
2021/08/02 11:11:37;;;;;;;3.23;1.60;;;22.80;87.70;;;;;;6129393;23;20407;-41
2021/08/02 11:14:09;;;;;;;4.40;2.43;;;22.60;88.50;;;;;;6128608;23;20434;-41
2021/08/02 11:16:41;;;;;;;8.67;2.10;;;22.60;89.60;;;;;;6129365;23;20414;-42
2021/08/02 11:19:15;;;;;;;2.90;1.50;;;22.60;88.90;;;;;;6131080;23;20387;-43
2021/08/02 11:21:44;;;;;;;3.30;1.73;;;22.50;89.20;;;;;;6133543;23;20425;-44
2021/08/02 11:24:12;;;;;;;3.40;1.60;;;22.30;89.30;;;;;;6133332;23;20434;-42
2021/08/02 11:26:51;;;;;;;2.17;1.80;;;22.20;87.10;;;;;;6130514;23;20421;-45
2021/08/02 11:29:21;;;;;;;3.80;1.80;;;22.00;86.00;;;;;;6132489;23;20390;-46
2021/08/02 11:31:58;;;;;;;3.63;2.20;;;22.00;83.70;;;;;;6131195;23;20403;-41
2021/08/02 11:34:26;;;;;;;3.60;1.70;;;21.80;81.60;;;;;;6131293;23;20426;-42
2021/08/02 11:37:04;;;;;;;2.27;1.83;;;21.60;79.30;;;;;;6130982;23;20416;-41
2021/08/02 11:39:32;;;;;;;2.70;1.50;;;21.60;80.10;;;;;;6131503;23;20457;-46
2021/08/02 11:42:05;;;;;;;3.10;1.50;;;21.80;81.70;;;;;;6130661;23;20427;-42
2021/08/02 11:44:38;;;;;;;2.03;1.40;;;22.20;81.90;;;;;;6129892;23;20410;-42
2021/08/02 11:47:10;;;;;;;6.33;1.60;;;22.20;82.40;;;;;;6130628;23;20395;-41
2021/08/02 11:49:39;;;;;;;3.03;2.40;;;22.20;83.10;;;;;;6130524;23;20419;-41
2021/08/02 11:52:07;;;;;;;2.00;1.73;;;22.10;81.70;;;;;;6130549;23;20431;-44
2021/08/02 11:54:34;;;;;;;2.70;1.50;;;22.40;83.20;;;;;;6131618;23;20427;-42
2021/08/02 11:57:01;;;;;;;5.40;2.17;;;22.60;83.80;;;;;;6131287;23;20402;-43
2021/08/02 11:59:29;;;;;;;7.97;2.10;;;22.80;82.40;;;;;;6130303;23;20489;-41
2021/08/02 12:02:00;;;;;;;3.00;1.40;;;22.70;80.30;;;;;;6130094;23;20470;-45
2021/08/02 12:04:28;;;;;;;3.23;1.70;;;22.60;81.70;;;;;;6130037;23;20407;-44
2021/08/02 12:06:56;;;;;;;3.37;1.83;;;22.60;83.00;;;;;;6130835;23;20418;-42
2021/08/02 12:09:34;;;;;;;2.00;1.70;;;22.50;82.30;;;;;;6130370;23;20410;-45
2021/08/02 12:12:02;;;;;;;3.63;1.90;;;22.60;78.10;;;;;;6130956;23;20454;-42
2021/08/02 12:14:31;;;;;;;2.63;1.47;;;22.60;73.60;;;;;;6130819;23;20530;-42
2021/08/02 12:17:05;;;;;;;3.83;1.77;;;22.60;74.40;;;;;;6131365;23;20418;-44
2021/08/02 12:19:44;;;;;;;2.40;1.47;;;22.60;75.70;;;;;;6130325;23;20406;-47
2021/08/02 12:22:11;;;;;;;1.67;1.23;;;22.60;76.60;;;;;;6130018;23;20896;-43
2021/08/02 12:24:52;;;;;;;2.30;1.80;;;22.40;75.10;;;;;;6129655;23;20889;-50
2021/08/02 12:27:19;;;;;;;2.90;1.60;;;22.40;76.00;;;;;;6128070;23;20390;-47
2021/08/02 12:29:58;;;;;;;6.20;3.00;;;22.40;74.80;;;;;;6128017;23;20470;-47
2021/08/02 12:32:37;;;;;;;4.27;2.60;;;22.40;76.20;;;;;;6127580;23;20415;-47
2021/08/02 12:35:05;;;;;;;6.03;3.30;;;22.50;76.00;;;;;;6127471;23;20546;-47
2021/08/02 12:37:32;;;;;;;5.60;2.70;;;22.50;77.30;;;;;;6128037;23;20398;-48
2021/08/02 12:39:59;;;;;;;9.93;2.87;;;22.60;77.70;;;;;;6126901;23;20714;-47
2021/08/02 12:42:27;;;;;;;3.30;1.50;;;22.70;74.80;;;;;;6127301;23;20877;-44
2021/08/02 12:44:54;;;;;;;2.47;1.30;;;22.60;74.30;;;;;;6128060;23;20411;-47
2021/08/02 12:47:21;;;;;;;2.80;2.17;;;22.60;75.30;;;;;;6128182;23;20434;-44
2021/08/02 12:49:49;;;;;;;3.13;2.10;;;22.80;74.10;;;;;;6128098;23;20415;-45
2021/08/02 12:52:18;;;;;;;2.57;1.80;;;22.80;73.40;;;;;;6127511;23;20438;-47
2021/08/02 12:54:44;;;;;;;3.03;1.40;;;22.90;74.00;;;;;;6127647;23;20442;-44
2021/08/02 12:57:11;;;;;;;3.40;1.43;;;23.10;73.50;;;;;;6128147;23;20418;-44